Terminal Aerodrome Forecast
Issued by NWS

Home | Current Version | Previous Version | Text Only | Print | Product List | Glossary On
Versions: 1 2 3 4 5 6 7 8 9 10 11 12 13 14 15
000
FTUS46 KLOX 291733
TAFWJF
TAF
KWJF 291733Z 2918/3018 21005KT P6SM SKC
     FM292000 23015G25KT P6SM SCT080 SCT200
     FM300400 25012KT P6SM SKC
     FM300600 25006KT P6SM SKC
     FM301000 VRB03KT P6SM SCT250=

USA.gov is the U.S. government's official web portal to all federal, state and local government web resources and services.